sensor_id;sensor_type;location;lat;lon;timestamp;temperature;humidity
69944;DHT22;57257;48.408;-4.498;2023-10-09T00:01:40;17.01;63.98
69944;DHT22;57257;48.408;-4.498;2023-10-09T00:04:10;16.98;64.08
69944;DHT22;57257;48.408;-4.498;2023-10-09T00:06:36;16.96;64.01
69944;DHT22;57257;48.408;-4.498;2023-10-09T00:09:06;16.96;64.19
69944;DHT22;57257;48.408;-4.498;2023-10-09T00:11:49;16.95;64.03
69944;DHT22;57257;48.408;-4.498;2023-10-09T00:14:21;16.92;64.17
69944;DHT22;57257;48.408;-4.498;2023-10-09T00:16:47;16.93;64.53
69944;DHT22;57257;48.408;-4.498;2023-10-09T00:19:21;16.96;64.58
69944;DHT22;57257;48.408;-4.498;2023-10-09T00:21:55;16.96;64.52
69944;DHT22;57257;48.408;-4.498;2023-10-09T00:24:21;16.98;64.33
69944;DHT22;57257;48.408;-4.498;2023-10-09T00:26:49;16.95;64.33
69944;DHT22;57257;48.408;-4.498;2023-10-09T00:29:16;16.93;64.30
69944;DHT22;57257;48.408;-4.498;2023-10-09T00:31:53;16.89;64.49
69944;DHT22;57257;48.408;-4.498;2023-10-09T00:34:38;16.88;64.65
69944;DHT22;57257;48.408;-4.498;2023-10-09T00:37:10;16.89;64.79
69944;DHT22;57257;48.408;-4.498;2023-10-09T00:39:42;16.89;64.75
69944;DHT22;57257;48.408;-4.498;2023-10-09T00:42:14;16.88;64.55
69944;DHT22;57257;48.408;-4.498;2023-10-09T00:44:55;16.85;64.67
69944;DHT22;57257;48.408;-4.498;2023-10-09T00:47:21;16.83;64.69
69944;DHT22;57257;48.408;-4.498;2023-10-09T00:50:06;16.85;64.80
69944;DHT22;57257;48.408;-4.498;2023-10-09T00:52:53;16.85;64.88
69944;DHT22;57257;48.408;-4.498;2023-10-09T00:55:26;16.86;64.87
69944;DHT22;57257;48.408;-4.498;2023-10-09T00:58:15;16.85;64.87
69944;DHT22;57257;48.408;-4.498;2023-10-09T01:00:49;16.81;65.10
69944;DHT22;57257;48.408;-4.498;2023-10-09T01:03:18;16.79;65.13
69944;DHT22;57257;48.408;-4.498;2023-10-09T01:05:44;16.78;65.28
69944;DHT22;57257;48.408;-4.498;2023-10-09T01:08:24;16.73;65.24
69944;DHT22;57257;48.408;-4.498;2023-10-09T01:13:40;16.78;65.45
69944;DHT22;57257;48.408;-4.498;2023-10-09T01:16:12;16.78;65.72
69944;DHT22;57257;48.408;-4.498;2023-10-09T01:18:45;16.75;65.83
69944;DHT22;57257;48.408;-4.498;2023-10-09T01:21:12;16.76;65.66
69944;DHT22;57257;48.408;-4.498;2023-10-09T01:23:43;16.79;65.53
69944;DHT22;57257;48.408;-4.498;2023-10-09T01:26:27;16.76;65.51
69944;DHT22;57257;48.408;-4.498;2023-10-09T01:28:58;16.78;65.54
69944;DHT22;57257;48.408;-4.498;2023-10-09T01:31:26;16.72;65.52
69944;DHT22;57257;48.408;-4.498;2023-10-09T01:33:59;16.75;65.61
69944;DHT22;57257;48.408;-4.498;2023-10-09T01:36:25;16.75;65.75
69944;DHT22;57257;48.408;-4.498;2023-10-09T01:38:59;16.72;65.95
69944;DHT22;57257;48.408;-4.498;2023-10-09T01:41:25;16.68;65.68
69944;DHT22;57257;48.408;-4.498;2023-10-09T01:43:50;16.68;65.91
69944;DHT22;57257;48.408;-4.498;2023-10-09T01:46:18;16.64;66.05
69944;DHT22;57257;48.408;-4.498;2023-10-09T01:48:45;16.64;66.20
69944;DHT22;57257;48.408;-4.498;2023-10-09T01:51:15;16.62;66.38
69944;DHT22;57257;48.408;-4.498;2023-10-09T01:53:44;16.58;66.51
69944;DHT22;57257;48.408;-4.498;2023-10-09T01:56:13;16.58;66.44
69944;DHT22;57257;48.408;-4.498;2023-10-09T01:58:41;16.52;66.54
69944;DHT22;57257;48.408;-4.498;2023-10-09T02:01:07;16.51;66.51
69944;DHT22;57257;48.408;-4.498;2023-10-09T02:03:32;16.47;66.21
69944;DHT22;57257;48.408;-4.498;2023-10-09T02:06:01;16.45;66.55
69944;DHT22;57257;48.408;-4.498;2023-10-09T02:08:29;16.40;66.45
69944;DHT22;57257;48.408;-4.498;2023-10-09T02:10:56;16.40;66.55
69944;DHT22;57257;48.408;-4.498;2023-10-09T02:13:22;16.34;66.74
69944;DHT22;57257;48.408;-4.498;2023-10-09T02:16:07;16.32;66.79
69944;DHT22;57257;48.408;-4.498;2023-10-09T02:18:39;16.34;66.99
69944;DHT22;57257;48.408;-4.498;2023-10-09T02:21:08;16.29;67.00
69944;DHT22;57257;48.408;-4.498;2023-10-09T02:23:34;16.29;67.09
69944;DHT22;57257;48.408;-4.498;2023-10-09T02:26:16;16.29;67.19
69944;DHT22;57257;48.408;-4.498;2023-10-09T02:28:53;16.28;67.23
69944;DHT22;57257;48.408;-4.498;2023-10-09T02:31:29;16.27;67.20
69944;DHT22;57257;48.408;-4.498;2023-10-09T02:34:08;16.28;67.17
69944;DHT22;57257;48.408;-4.498;2023-10-09T02:36:36;16.25;67.14
69944;DHT22;57257;48.408;-4.498;2023-10-09T02:39:08;16.24;67.16
69944;DHT22;57257;48.408;-4.498;2023-10-09T02:41:50;16.22;67.18
69944;DHT22;57257;48.408;-4.498;2023-10-09T02:44:16;16.20;67.29
69944;DHT22;57257;48.408;-4.498;2023-10-09T02:46:42;16.18;67.21
69944;DHT22;57257;48.408;-4.498;2023-10-09T02:49:10;16.20;67.16
69944;DHT22;57257;48.408;-4.498;2023-10-09T02:51:41;16.21;67.15
69944;DHT22;57257;48.408;-4.498;2023-10-09T02:54:13;16.22;67.06
69944;DHT22;57257;48.408;-4.498;2023-10-09T02:56:48;16.21;67.01
69944;DHT22;57257;48.408;-4.498;2023-10-09T02:59:21;16.22;66.99
69944;DHT22;57257;48.408;-4.498;2023-10-09T03:01:48;16.22;66.89
69944;DHT22;57257;48.408;-4.498;2023-10-09T03:06:48;16.20;66.94
69944;DHT22;57257;48.408;-4.498;2023-10-09T03:09:17;16.20;67.07
69944;DHT22;57257;48.408;-4.498;2023-10-09T03:11:47;16.20;67.15
69944;DHT22;57257;48.408;-4.498;2023-10-09T03:14:14;16.20;67.12
69944;DHT22;57257;48.408;-4.498;2023-10-09T03:16:41;16.18;67.14
69944;DHT22;57257;48.408;-4.498;2023-10-09T03:19:07;16.18;67.13
69944;DHT22;57257;48.408;-4.498;2023-10-09T03:21:32;16.22;67.15
69944;DHT22;57257;48.408;-4.498;2023-10-09T03:23:58;16.21;67.27
69944;DHT22;57257;48.408;-4.498;2023-10-09T03:26:23;16.20;67.33
69944;DHT22;57257;48.408;-4.498;2023-10-09T03:28:51;16.20;67.30
69944;DHT22;57257;48.408;-4.498;2023-10-09T03:31:18;16.20;67.35
69944;DHT22;57257;48.408;-4.498;2023-10-09T03:33:43;16.18;67.33
69944;DHT22;57257;48.408;-4.498;2023-10-09T03:36:08;16.17;67.26
69944;DHT22;57257;48.408;-4.498;2023-10-09T03:38:38;16.14;67.20
69944;DHT22;57257;48.408;-4.498;2023-10-09T03:41:06;16.16;67.10
69944;DHT22;57257;48.408;-4.498;2023-10-09T03:43:36;16.16;67.17
69944;DHT22;57257;48.408;-4.498;2023-10-09T03:46:08;16.14;67.33
69944;DHT22;57257;48.408;-4.498;2023-10-09T03:48:54;16.14;67.52
69944;DHT22;57257;48.408;-4.498;2023-10-09T03:51:23;16.13;67.43
69944;DHT22;57257;48.408;-4.498;2023-10-09T03:53:49;16.11;67.43
69944;DHT22;57257;48.408;-4.498;2023-10-09T03:56:15;16.14;67.48
69944;DHT22;57257;48.408;-4.498;2023-10-09T03:58:45;16.14;67.39
69944;DHT22;57257;48.408;-4.498;2023-10-09T04:01:13;16.11;67.46
69944;DHT22;57257;48.408;-4.498;2023-10-09T04:03:57;16.10;67.55
69944;DHT22;57257;48.408;-4.498;2023-10-09T04:06:27;16.08;67.59
69944;DHT22;57257;48.408;-4.498;2023-10-09T04:08:54;16.07;67.77
69944;DHT22;57257;48.408;-4.498;2023-10-09T04:11:20;16.07;67.89
69944;DHT22;57257;48.408;-4.498;2023-10-09T04:13:48;16.06;67.98
69944;DHT22;57257;48.408;-4.498;2023-10-09T04:16:25;16.03;67.59
69944;DHT22;57257;48.408;-4.498;2023-10-09T04:19:01;16.03;67.79
69944;DHT22;57257;48.408;-4.498;2023-10-09T04:21:53;16.00;67.82
69944;DHT22;57257;48.408;-4.498;2023-10-09T04:24:21;15.97;67.80
69944;DHT22;57257;48.408;-4.498;2023-10-09T04:26:46;15.98;67.79
69944;DHT22;57257;48.408;-4.498;2023-10-09T04:29:13;15.97;67.79
69944;DHT22;57257;48.408;-4.498;2023-10-09T04:32:03;15.93;67.80
69944;DHT22;57257;48.408;-4.498;2023-10-09T04:34:33;15.97;67.71
69944;DHT22;57257;48.408;-4.498;2023-10-09T04:37:01;15.93;67.68
69944;DHT22;57257;48.408;-4.498;2023-10-09T04:39:45;15.93;67.87
69944;DHT22;57257;48.408;-4.498;2023-10-09T04:42:14;15.91;67.97
69944;DHT22;57257;48.408;-4.498;2023-10-09T04:44:45;15.93;67.83
69944;DHT22;57257;48.408;-4.498;2023-10-09T04:47:28;15.96;67.97
69944;DHT22;57257;48.408;-4.498;2023-10-09T04:50:08;15.96;68.08
69944;DHT22;57257;48.408;-4.498;2023-10-09T04:52:35;15.96;68.14
69944;DHT22;57257;48.408;-4.498;2023-10-09T04:55:00;15.93;68.26
69944;DHT22;57257;48.408;-4.498;2023-10-09T04:57:43;15.91;68.22
69944;DHT22;57257;48.408;-4.498;2023-10-09T05:00:16;15.94;68.33
69944;DHT22;57257;48.408;-4.498;2023-10-09T05:03:08;15.89;68.26
69944;DHT22;57257;48.408;-4.498;2023-10-09T05:05:38;15.87;68.26
69944;DHT22;57257;48.408;-4.498;2023-10-09T05:08:14;15.84;68.37
69944;DHT22;57257;48.408;-4.498;2023-10-09T05:10:47;15.83;68.36
69944;DHT22;57257;48.408;-4.498;2023-10-09T05:16:06;15.79;68.53
69944;DHT22;57257;48.408;-4.498;2023-10-09T05:18:42;15.79;68.63
69944;DHT22;57257;48.408;-4.498;2023-10-09T05:21:12;15.79;68.57
69944;DHT22;57257;48.408;-4.498;2023-10-09T05:23:38;15.77;68.63
69944;DHT22;57257;48.408;-4.498;2023-10-09T05:26:23;15.79;68.71
69944;DHT22;57257;48.408;-4.498;2023-10-09T05:29:03;15.79;68.40
69944;DHT22;57257;48.408;-4.498;2023-10-09T05:31:50;15.76;68.47
69944;DHT22;57257;48.408;-4.498;2023-10-09T05:34:28;15.76;68.66
69944;DHT22;57257;48.408;-4.498;2023-10-09T05:37:06;15.73;68.50
69944;DHT22;57257;48.408;-4.498;2023-10-09T05:39:54;15.64;68.40
69944;DHT22;57257;48.408;-4.498;2023-10-09T05:45:08;15.53;68.50
69944;DHT22;57257;48.408;-4.498;2023-10-09T05:47:46;15.52;68.59
69944;DHT22;57257;48.408;-4.498;2023-10-09T05:50:30;15.47;68.75
69944;DHT22;57257;48.408;-4.498;2023-10-09T05:53:00;15.49;68.80
69944;DHT22;57257;48.408;-4.498;2023-10-09T05:55:27;15.46;68.91
69944;DHT22;57257;48.408;-4.498;2023-10-09T05:58:12;15.44;68.77
69944;DHT22;57257;48.408;-4.498;2023-10-09T06:00:56;15.49;68.89
69944;DHT22;57257;48.408;-4.498;2023-10-09T06:03:50;15.49;68.88
69944;DHT22;57257;48.408;-4.498;2023-10-09T06:06:37;15.47;68.93
69944;DHT22;57257;48.408;-4.498;2023-10-09T06:09:21;15.49;69.07
69944;DHT22;57257;48.408;-4.498;2023-10-09T06:11:49;15.47;69.07
69944;DHT22;57257;48.408;-4.498;2023-10-09T06:14:18;15.52;68.95
69944;DHT22;57257;48.408;-4.498;2023-10-09T06:17:13;15.53;69.02
69944;DHT22;57257;48.408;-4.498;2023-10-09T06:19:38;15.52;69.07
69944;DHT22;57257;48.408;-4.498;2023-10-09T06:22:10;15.52;69.07
69944;DHT22;57257;48.408;-4.498;2023-10-09T06:24:54;15.50;69.08
69944;DHT22;57257;48.408;-4.498;2023-10-09T06:27:21;15.52;69.17
69944;DHT22;57257;48.408;-4.498;2023-10-09T06:29:55;15.54;69.22
69944;DHT22;57257;48.408;-4.498;2023-10-09T06:32:40;15.57;69.18
69944;DHT22;57257;48.408;-4.498;2023-10-09T06:35:16;15.62;69.16
69944;DHT22;57257;48.408;-4.498;2023-10-09T06:37:44;15.64;69.09
69944;DHT22;57257;48.408;-4.498;2023-10-09T06:43:08;15.70;69.32
69944;DHT22;57257;48.408;-4.498;2023-10-09T06:45:57;15.73;69.39
69944;DHT22;57257;48.408;-4.498;2023-10-09T06:48:27;15.74;69.35
69944;DHT22;57257;48.408;-4.498;2023-10-09T06:51:06;15.77;69.24
69944;DHT22;57257;48.408;-4.498;2023-10-09T06:53:58;15.87;69.23
69944;DHT22;57257;48.408;-4.498;2023-10-09T06:56:29;15.94;69.36
69944;DHT22;57257;48.408;-4.498;2023-10-09T06:58:59;16.00;69.41
69944;DHT22;57257;48.408;-4.498;2023-10-09T07:01:29;16.01;69.46
69944;DHT22;57257;48.408;-4.498;2023-10-09T07:04:03;16.08;69.23
69944;DHT22;57257;48.408;-4.498;2023-10-09T07:06:48;16.17;69.24
69944;DHT22;57257;48.408;-4.498;2023-10-09T07:09:16;16.28;69.23
69944;DHT22;57257;48.408;-4.498;2023-10-09T07:11:49;16.38;69.07
69944;DHT22;57257;48.408;-4.498;2023-10-09T07:14:29;16.49;68.86
69944;DHT22;57257;48.408;-4.498;2023-10-09T07:17:07;16.61;68.73
69944;DHT22;57257;48.408;-4.498;2023-10-09T07:19:48;16.73;68.56
69944;DHT22;57257;48.408;-4.498;2023-10-09T07:22:16;16.83;68.46
69944;DHT22;57257;48.408;-4.498;2023-10-09T07:27:26;17.06;68.15
69944;DHT22;57257;48.408;-4.498;2023-10-09T07:30:16;17.16;67.90
69944;DHT22;57257;48.408;-4.498;2023-10-09T07:35:34;17.23;67.57
69944;DHT22;57257;48.408;-4.498;2023-10-09T07:38:17;17.37;67.67
69944;DHT22;57257;48.408;-4.498;2023-10-09T07:40:50;17.62;67.75
69944;DHT22;57257;48.408;-4.498;2023-10-09T07:43:45;17.96;67.44
69944;DHT22;57257;48.408;-4.498;2023-10-09T07:46:15;18.11;67.23
69944;DHT22;57257;48.408;-4.498;2023-10-09T07:48:56;18.28;67.01
69944;DHT22;57257;48.408;-4.498;2023-10-09T07:51:24;18.35;66.79
69944;DHT22;57257;48.408;-4.498;2023-10-09T07:53:57;18.48;66.86
69944;DHT22;57257;48.408;-4.498;2023-10-09T07:56:24;18.63;66.71
69944;DHT22;57257;48.408;-4.498;2023-10-09T07:58:49;18.76;66.61
69944;DHT22;57257;48.408;-4.498;2023-10-09T08:01:17;18.92;66.55
69944;DHT22;57257;48.408;-4.498;2023-10-09T08:04:02;19.10;66.41
69944;DHT22;57257;48.408;-4.498;2023-10-09T08:06:38;19.22;66.24
69944;DHT22;57257;48.408;-4.498;2023-10-09T08:09:04;19.38;66.07
69944;DHT22;57257;48.408;-4.498;2023-10-09T08:11:39;19.47;65.96
69944;DHT22;57257;48.408;-4.498;2023-10-09T08:14:05;19.60;65.80
69944;DHT22;57257;48.408;-4.498;2023-10-09T08:16:54;19.70;65.59
69944;DHT22;57257;48.408;-4.498;2023-10-09T08:19:41;19.82;65.21
69944;DHT22;57257;48.408;-4.498;2023-10-09T08:22:36;19.97;64.90
69944;DHT22;57257;48.408;-4.498;2023-10-09T08:25:09;20.07;64.73
69944;DHT22;57257;48.408;-4.498;2023-10-09T08:27:55;20.18;64.40
69944;DHT22;57257;48.408;-4.498;2023-10-09T08:30:21;20.26;64.12
69944;DHT22;57257;48.408;-4.498;2023-10-09T08:32:50;20.35;63.99
69944;DHT22;57257;48.408;-4.498;2023-10-09T08:35:33;20.39;63.43
69944;DHT22;57257;48.408;-4.498;2023-10-09T08:38:01;20.46;63.33
69944;DHT22;57257;48.408;-4.498;2023-10-09T08:40:40;20.56;63.02
69944;DHT22;57257;48.408;-4.498;2023-10-09T08:43:09;20.72;63.05
69944;DHT22;57257;48.408;-4.498;2023-10-09T08:45:38;20.82;62.16
69944;DHT22;57257;48.408;-4.498;2023-10-09T08:48:05;20.87;61.75
69944;DHT22;57257;48.408;-4.498;2023-10-09T08:50:32;20.92;61.26
69944;DHT22;57257;48.408;-4.498;2023-10-09T08:53:00;20.97;60.62
69944;DHT22;57257;48.408;-4.498;2023-10-09T08:55:26;20.99;60.35
69944;DHT22;57257;48.408;-4.498;2023-10-09T08:57:52;21.08;60.53
69944;DHT22;57257;48.408;-4.498;2023-10-09T09:00:18;21.20;60.42
69944;DHT22;57257;48.408;-4.498;2023-10-09T09:02:52;21.33;60.65
69944;DHT22;57257;48.408;-4.498;2023-10-09T09:05:19;21.41;60.18
69944;DHT22;57257;48.408;-4.498;2023-10-09T09:07:46;21.44;59.96
69944;DHT22;57257;48.408;-4.498;2023-10-09T09:10:11;21.51;59.79
69944;DHT22;57257;48.408;-4.498;2023-10-09T09:12:46;21.57;59.43
69944;DHT22;57257;48.408;-4.498;2023-10-09T09:15:15;21.71;58.90
69944;DHT22;57257;48.408;-4.498;2023-10-09T09:17:44;21.87;58.60
69944;DHT22;57257;48.408;-4.498;2023-10-09T09:20:24;22.00;58.29
69944;DHT22;57257;48.408;-4.498;2023-10-09T09:22:57;22.09;58.13
69944;DHT22;57257;48.408;-4.498;2023-10-09T09:25:40;22.18;57.73
69944;DHT22;57257;48.408;-4.498;2023-10-09T09:28:09;22.29;57.34
69944;DHT22;57257;48.408;-4.498;2023-10-09T09:30:38;22.32;55.49
69944;DHT22;57257;48.408;-4.498;2023-10-09T09:33:19;22.33;56.21
69944;DHT22;57257;48.408;-4.498;2023-10-09T09:36:07;22.38;55.81
69944;DHT22;57257;48.408;-4.498;2023-10-09T09:38:36;22.42;54.00
69944;DHT22;57257;48.408;-4.498;2023-10-09T09:41:13;22.36;54.55
69944;DHT22;57257;48.408;-4.498;2023-10-09T09:43:53;22.35;53.44
69944;DHT22;57257;48.408;-4.498;2023-10-09T09:46:22;22.36;53.28
69944;DHT22;57257;48.408;-4.498;2023-10-09T09:48:54;22.38;53.18
69944;DHT22;57257;48.408;-4.498;2023-10-09T09:51:25;22.42;52.60
69944;DHT22;57257;48.408;-4.498;2023-10-09T09:53:54;22.45;52.86
69944;DHT22;57257;48.408;-4.498;2023-10-09T09:56:20;22.46;51.56
69944;DHT22;57257;48.408;-4.498;2023-10-09T09:58:50;22.41;51.93
69944;DHT22;57257;48.408;-4.498;2023-10-09T10:01:19;22.36;50.41
69944;DHT22;57257;48.408;-4.498;2023-10-09T10:03:59;22.31;50.89
69944;DHT22;57257;48.408;-4.498;2023-10-09T10:06:29;22.35;51.73
69944;DHT22;57257;48.408;-4.498;2023-10-09T10:08:57;22.49;51.22
69944;DHT22;57257;48.408;-4.498;2023-10-09T10:11:47;22.52;50.88
69944;DHT22;57257;48.408;-4.498;2023-10-09T10:14:17;22.55;51.97
69944;DHT22;57257;48.408;-4.498;2023-10-09T10:17:00;22.67;51.91
69944;DHT22;57257;48.408;-4.498;2023-10-09T10:20:02;22.80;51.94
69944;DHT22;57257;48.408;-4.498;2023-10-09T10:22:43;22.85;52.27
69944;DHT22;57257;48.408;-4.498;2023-10-09T10:25:35;22.99;52.34
69944;DHT22;57257;48.408;-4.498;2023-10-09T10:28:24;22.96;51.82
69944;DHT22;57257;48.408;-4.498;2023-10-09T10:31:11;22.89;52.06
69944;DHT22;57257;48.408;-4.498;2023-10-09T10:36:23;23.00;51.13
69944;DHT22;57257;48.408;-4.498;2023-10-09T10:41:55;23.21;51.60
69944;DHT22;57257;48.408;-4.498;2023-10-09T10:44:33;23.34;52.18
69944;DHT22;57257;48.408;-4.498;2023-10-09T10:47:12;23.46;50.80
69944;DHT22;57257;48.408;-4.498;2023-10-09T10:50:01;23.44;50.21
69944;DHT22;57257;48.408;-4.498;2023-10-09T10:53:14;23.53;49.98
69944;DHT22;57257;48.408;-4.498;2023-10-09T10:55:57;23.60;50.55
69944;DHT22;57257;48.408;-4.498;2023-10-09T10:58:23;23.67;49.87
69944;DHT22;57257;48.408;-4.498;2023-10-09T11:00:56;23.75;50.14
69944;DHT22;57257;48.408;-4.498;2023-10-09T11:03:37;23.71;48.40
69944;DHT22;57257;48.408;-4.498;2023-10-09T11:06:25;23.64;48.70
69944;DHT22;57257;48.408;-4.498;2023-10-09T11:09:01;23.57;49.61
69944;DHT22;57257;48.408;-4.498;2023-10-09T11:11:35;23.60;49.75
69944;DHT22;57257;48.408;-4.498;2023-10-09T11:14:12;23.64;49.85
69944;DHT22;57257;48.408;-4.498;2023-10-09T11:16:43;23.71;49.57
69944;DHT22;57257;48.408;-4.498;2023-10-09T11:19:10;23.77;48.97
69944;DHT22;57257;48.408;-4.498;2023-10-09T11:21:54;23.84;49.14
69944;DHT22;57257;48.408;-4.498;2023-10-09T11:24:33;23.89;48.71
69944;DHT22;57257;48.408;-4.498;2023-10-09T11:27:01;23.94;49.21
69944;DHT22;57257;48.408;-4.498;2023-10-09T11:29:31;24.04;49.13
69944;DHT22;57257;48.408;-4.498;2023-10-09T11:32:20;24.11;46.97
69944;DHT22;57257;48.408;-4.498;2023-10-09T11:35:08;24.16;47.74
69944;DHT22;57257;48.408;-4.498;2023-10-09T11:37:34;24.25;46.88
69944;DHT22;57257;48.408;-4.498;2023-10-09T11:40:31;24.33;46.89
69944;DHT22;57257;48.408;-4.498;2023-10-09T11:43:23;24.29;45.28
69944;DHT22;57257;48.408;-4.498;2023-10-09T11:46:09;24.29;46.85
69944;DHT22;57257;48.408;-4.498;2023-10-09T11:48:38;24.40;46.81
69944;DHT22;57257;48.408;-4.498;2023-10-09T11:51:33;24.48;46.57
69944;DHT22;57257;48.408;-4.498;2023-10-09T11:54:03;24.57;46.67
69944;DHT22;57257;48.408;-4.498;2023-10-09T11:56:28;24.57;44.05
69944;DHT22;57257;48.408;-4.498;2023-10-09T11:58:54;24.56;44.27
69944;DHT22;57257;48.408;-4.498;2023-10-09T12:01:23;24.63;44.69
69944;DHT22;57257;48.408;-4.498;2023-10-09T12:03:50;24.70;44.73
69944;DHT22;57257;48.408;-4.498;2023-10-09T12:06:18;24.77;43.79
69944;DHT22;57257;48.408;-4.498;2023-10-09T12:08:55;24.90;43.71
69944;DHT22;57257;48.408;-4.498;2023-10-09T12:11:23;24.99;44.14
69944;DHT22;57257;48.408;-4.498;2023-10-09T12:13:54;25.08;44.06
69944;DHT22;57257;48.408;-4.498;2023-10-09T12:16:26;25.10;43.28
69944;DHT22;57257;48.408;-4.498;2023-10-09T12:18:56;25.08;42.83
69944;DHT22;57257;48.408;-4.498;2023-10-09T12:21:22;25.08;43.47
69944;DHT22;57257;48.408;-4.498;2023-10-09T12:23:48;25.11;41.77
69944;DHT22;57257;48.408;-4.498;2023-10-09T12:26:14;25.17;42.39
69944;DHT22;57257;48.408;-4.498;2023-10-09T12:28:43;25.21;41.99
69944;DHT22;57257;48.408;-4.498;2023-10-09T12:31:12;25.21;43.05
69944;DHT22;57257;48.408;-4.498;2023-10-09T12:33:40;25.38;43.22
69944;DHT22;57257;48.408;-4.498;2023-10-09T12:36:06;25.48;43.95
69944;DHT22;57257;48.408;-4.498;2023-10-09T12:38:31;25.57;42.91
69944;DHT22;57257;48.408;-4.498;2023-10-09T12:41:03;25.64;43.64
69944;DHT22;57257;48.408;-4.498;2023-10-09T12:43:45;25.74;43.02
69944;DHT22;57257;48.408;-4.498;2023-10-09T12:46:11;25.86;43.77
69944;DHT22;57257;48.408;-4.498;2023-10-09T12:48:42;25.95;43.37
69944;DHT22;57257;48.408;-4.498;2023-10-09T12:51:12;26.08;43.45
69944;DHT22;57257;48.408;-4.498;2023-10-09T12:53:42;26.18;43.73
69944;DHT22;57257;48.408;-4.498;2023-10-09T12:56:07;26.32;43.48
69944;DHT22;57257;48.408;-4.498;2023-10-09T12:58:34;26.37;43.28
69944;DHT22;57257;48.408;-4.498;2023-10-09T13:01:03;26.35;43.20
69944;DHT22;57257;48.408;-4.498;2023-10-09T13:03:35;26.32;43.77
69944;DHT22;57257;48.408;-4.498;2023-10-09T13:06:03;26.45;44.35
69944;DHT22;57257;48.408;-4.498;2023-10-09T13:08:36;26.59;43.45
69944;DHT22;57257;48.408;-4.498;2023-10-09T13:11:06;26.64;43.06
69944;DHT22;57257;48.408;-4.498;2023-10-09T13:13:41;26.75;42.88
69944;DHT22;57257;48.408;-4.498;2023-10-09T13:16:14;26.87;40.80
69944;DHT22;57257;48.408;-4.498;2023-10-09T13:18:49;26.96;39.90
69944;DHT22;57257;48.408;-4.498;2023-10-09T13:21:22;26.90;39.39
69944;DHT22;57257;48.408;-4.498;2023-10-09T13:23:48;26.99;39.08
69944;DHT22;57257;48.408;-4.498;2023-10-09T13:26:20;27.04;39.58
69944;DHT22;57257;48.408;-4.498;2023-10-09T13:28:57;27.06;37.62
69944;DHT22;57257;48.408;-4.498;2023-10-09T13:31:24;27.10;37.91
69944;DHT22;57257;48.408;-4.498;2023-10-09T13:33:52;27.17;37.11
69944;DHT22;57257;48.408;-4.498;2023-10-09T13:36:24;27.24;36.08
69944;DHT22;57257;48.408;-4.498;2023-10-09T13:38:54;27.23;35.29
69944;DHT22;57257;48.408;-4.498;2023-10-09T13:41:20;27.24;36.17
69944;DHT22;57257;48.408;-4.498;2023-10-09T13:43:45;27.38;36.28
69944;DHT22;57257;48.408;-4.498;2023-10-09T13:46:11;27.57;35.60
69944;DHT22;57257;48.408;-4.498;2023-10-09T13:48:42;27.58;32.82
69944;DHT22;57257;48.408;-4.498;2023-10-09T13:51:12;27.68;34.44
69944;DHT22;57257;48.408;-4.498;2023-10-09T13:53:48;27.82;34.10
69944;DHT22;57257;48.408;-4.498;2023-10-09T13:56:18;28.02;34.23
69944;DHT22;57257;48.408;-4.498;2023-10-09T13:58:45;28.23;33.64
69944;DHT22;57257;48.408;-4.498;2023-10-09T14:01:11;28.46;34.04
69944;DHT22;57257;48.408;-4.498;2023-10-09T14:03:45;28.74;32.91
69944;DHT22;57257;48.408;-4.498;2023-10-09T14:06:16;28.97;32.83
69944;DHT22;57257;48.408;-4.498;2023-10-09T14:08:45;29.17;30.52
69944;DHT22;57257;48.408;-4.498;2023-10-09T14:11:10;29.57;30.17
69944;DHT22;57257;48.408;-4.498;2023-10-09T14:13:40;29.88;29.92
69944;DHT22;57257;48.408;-4.498;2023-10-09T14:16:05;30.32;30.38
69944;DHT22;57257;48.408;-4.498;2023-10-09T14:18:32;30.83;28.65
69944;DHT22;57257;48.408;-4.498;2023-10-09T14:21:01;31.35;28.20
69944;DHT22;57257;48.408;-4.498;2023-10-09T14:23:29;31.84;27.09
69944;DHT22;57257;48.408;-4.498;2023-10-09T14:25:59;32.44;27.80
69944;DHT22;57257;48.408;-4.498;2023-10-09T14:28:27;33.06;26.83
69944;DHT22;57257;48.408;-4.498;2023-10-09T14:30:54;33.59;24.59
69944;DHT22;57257;48.408;-4.498;2023-10-09T14:33:24;34.01;25.51
69944;DHT22;57257;48.408;-4.498;2023-10-09T14:35:54;34.56;24.30
69944;DHT22;57257;48.408;-4.498;2023-10-09T14:38:20;34.93;24.17
69944;DHT22;57257;48.408;-4.498;2023-10-09T14:40:52;35.38;24.70
69944;DHT22;57257;48.408;-4.498;2023-10-09T14:43:23;35.98;24.30
69944;DHT22;57257;48.408;-4.498;2023-10-09T14:45:53;36.25;23.61
69944;DHT22;57257;48.408;-4.498;2023-10-09T14:48:20;36.68;23.46
69944;DHT22;57257;48.408;-4.498;2023-10-09T14:50:53;37.26;22.73
69944;DHT22;57257;48.408;-4.498;2023-10-09T14:53:19;37.65;22.21
69944;DHT22;57257;48.408;-4.498;2023-10-09T14:55:45;37.74;22.04
69944;DHT22;57257;48.408;-4.498;2023-10-09T14:58:14;37.61;22.51
69944;DHT22;57257;48.408;-4.498;2023-10-09T15:00:40;36.73;21.76
69944;DHT22;57257;48.408;-4.498;2023-10-09T15:03:13;35.40;22.82
69944;DHT22;57257;48.408;-4.498;2023-10-09T15:05:41;34.59;23.26
69944;DHT22;57257;48.408;-4.498;2023-10-09T15:08:07;34.59;23.82
69944;DHT22;57257;48.408;-4.498;2023-10-09T15:10:48;34.35;24.68
69944;DHT22;57257;48.408;-4.498;2023-10-09T15:13:15;33.30;24.67
69944;DHT22;57257;48.408;-4.498;2023-10-09T15:15:44;32.12;25.28
69944;DHT22;57257;48.408;-4.498;2023-10-09T15:18:11;31.27;26.42
69944;DHT22;57257;48.408;-4.498;2023-10-09T15:20:40;30.50;27.46
69944;DHT22;57257;48.408;-4.498;2023-10-09T15:23:09;30.09;28.65
69944;DHT22;57257;48.408;-4.498;2023-10-09T15:25:35;29.74;28.85
69944;DHT22;57257;48.408;-4.498;2023-10-09T15:28:07;29.42;29.42
69944;DHT22;57257;48.408;-4.498;2023-10-09T15:30:35;29.06;29.90
69944;DHT22;57257;48.408;-4.498;2023-10-09T15:33:06;28.70;30.14
69944;DHT22;57257;48.408;-4.498;2023-10-09T15:35:32;28.32;30.90
69944;DHT22;57257;48.408;-4.498;2023-10-09T15:38:00;28.12;31.31
69944;DHT22;57257;48.408;-4.498;2023-10-09T15:40:31;27.81;31.88
69944;DHT22;57257;48.408;-4.498;2023-10-09T15:43:00;27.51;32.24
69944;DHT22;57257;48.408;-4.498;2023-10-09T15:45:26;27.18;33.44
69944;DHT22;57257;48.408;-4.498;2023-10-09T15:47:53;26.90;33.68
69944;DHT22;57257;48.408;-4.498;2023-10-09T15:50:20;26.69;33.96
69944;DHT22;57257;48.408;-4.498;2023-10-09T15:52:48;26.64;34.17
69944;DHT22;57257;48.408;-4.498;2023-10-09T15:55:16;26.45;34.66
69944;DHT22;57257;48.408;-4.498;2023-10-09T15:57:46;26.33;34.75
69944;DHT22;57257;48.408;-4.498;2023-10-09T16:00:17;26.18;35.19
69944;DHT22;57257;48.408;-4.498;2023-10-09T16:02:49;26.02;35.42
69944;DHT22;57257;48.408;-4.498;2023-10-09T16:05:18;25.91;36.21
69944;DHT22;57257;48.408;-4.498;2023-10-09T16:07:44;25.74;36.83
69944;DHT22;57257;48.408;-4.498;2023-10-09T16:10:10;25.62;37.37
69944;DHT22;57257;48.408;-4.498;2023-10-09T16:12:40;25.64;37.49
69944;DHT22;57257;48.408;-4.498;2023-10-09T16:15:07;25.55;37.32